Mount Horeb, WI

4:42 PM CST on February 21, 2017 (GMT -0600)
| | Change Station
Active Advisory: Hydrologic Statement

Elev -9999 ft 0.00 °N, 0.00 °E | Updated 4 minutes ago

Partly Cloudy
Partly Cloudy
°F
Feels Like °F
N
Wind Variable Wind from North
Gusts mph

Today
High -- | Low -- °F
--% Chance of Precip.
Yesterday
High -- | Low -- °F
Precip. -- in
Pressure 29.88 in
Visibility 10.0 miles
Clouds Clear
Dew Point Not available.
Humidity Not available.
Rainfall --
Snow Depth Not available.
6:47 AM 5:38 PM
Waning Crescent, 22% visible
METAR KC29 212235Z AUTO 21004KT 10SM CLR 16/M01 A2988 RMK AO1 T01621009
Pressure 29.88 in
Visibility 10.0 miles
Clouds Clear
Dew Point Not available.
Humidity Not available.
Rainfall --
Snow Depth Not available.
6:47 AM 5:38 PM
Waning Crescent, 22% visible
METAR KC29 212235Z AUTO 21004KT 10SM CLR 16/M01 A2988 RMK AO1 T01621009

Get Your Daily Forecast Email!

Thanks for signing up!

Be on the lookout for a verification email in your inbox.

You'll start receiving the daily forecast at 8 AM.

×

10-Day Weather Forecast

Almanac

Astronomy

Feb. 21, 2017 Rise Set
Actual Time
Civil Twilight
Nautical Twilight
Astronomical Twilight
Moon
Length of Visible Light
Length of Day
Tomorrow will be .
, % of the Moon is Illuminated

Today's Extremes

State Highs State Lows

Community

WunderPhotos

Upload Photos

1,962,540 photos uploaded!

WunderBlog® & News

Nearby

Air Quality

  Air Quality AQ Index Pollutant
Not available.

Snow Depth

Station Depth Elevation

Earthquake Activity

City Distance Mag. Time & Date
Minimum magnitude displayed is 2.5.

Coastal Water Temperatures

Place Temperature

Stations

Nearby Weather Stations

Station Location Temp. Windchill Dew Point Humidity Wind Precip. Elev Updated Type
                   

Watches & Warnings

Hydrologic Statement
Issued: 2:32 PM CST Feb. 21, 2017 – National Weather Service

Forecast information for
crawfish river at Columbus.
* At 2:30 PM Tuesday the stage was 13.1 feet.
* Flood stage is 17.5 feet.